createdAt,value
2023-07-28T00:00:09.961Z,6.40
2023-07-28T00:10:42.272Z,6.38
2023-07-28T00:21:06.813Z,8.48
2023-07-28T00:31:29.729Z,11.35
2023-07-28T00:41:51.197Z,6.47
2023-07-28T00:52:14.302Z,5.68
2023-07-28T01:02:36.036Z,4.53
2023-07-28T01:12:58.955Z,4.60
2023-07-28T01:23:22.693Z,3.30
2023-07-28T01:33:46.048Z,2.65
2023-07-28T01:44:07.535Z,7.53
2023-07-28T01:54:30.716Z,9.02
2023-07-28T02:04:53.635Z,3.22
2023-07-28T02:15:16.456Z,5.22
2023-07-28T02:25:37.926Z,3.83
2023-07-28T02:36:00.945Z,7.53
2023-07-28T02:46:22.857Z,5.72
2023-07-28T02:56:46.356Z,7.03
2023-07-28T03:07:07.968Z,8.07
2023-07-28T03:17:33.457Z,4.32
2023-07-28T03:27:55.198Z,5.70
2023-07-28T03:38:19.625Z,4.07
2023-07-28T03:59:04.822Z,15.43
2023-07-28T04:09:26.558Z,6.25
2023-07-28T04:19:49.696Z,5.93
2023-07-28T04:30:11.936Z,10.25
2023-07-28T04:40:35.102Z,5.63
2023-07-28T04:50:56.965Z,8.07
2023-07-28T05:01:48.529Z,5.38
2023-07-28T05:12:11.145Z,6.78
2023-07-28T05:22:41.123Z,6.90
2023-07-28T05:33:02.805Z,4.70
2023-07-28T05:43:52.232Z,5.72
2023-07-28T05:54:15.680Z,6.40
2023-07-28T06:04:39.004Z,4.65
2023-07-28T06:15:01.850Z,4.27
2023-07-28T06:25:25.499Z,7.28
2023-07-28T06:35:48.160Z,4.15
2023-07-28T06:46:11.126Z,3.28
2023-07-28T06:56:35.257Z,3.60
2023-07-28T07:06:58.241Z,8.55
2023-07-28T07:17:19.669Z,7.05
2023-07-28T07:27:42.661Z,3.60
2023-07-28T07:38:04.270Z,3.17
2023-07-28T07:48:27.538Z,5.32
2023-07-28T07:58:49.447Z,3.40
2023-07-28T08:09:12.555Z,2.40
2023-07-28T08:19:34.443Z,4.23
2023-07-28T08:29:57.322Z,3.65
2023-07-28T08:40:20.386Z,1.80
2023-07-28T08:50:43.849Z,2.63
2023-07-28T09:01:06.330Z,2.20
2023-07-28T09:11:29.574Z,3.78
2023-07-28T09:22:00.356Z,2.00
2023-07-28T09:32:34.454Z,2.10
2023-07-28T09:53:22.128Z,2.47
2023-07-28T10:03:43.874Z,2.20
2023-07-28T10:14:12.387Z,2.60
2023-07-28T10:24:54.200Z,6.25
2023-07-28T10:35:27.072Z,3.42
2023-07-28T10:45:49.000Z,3.53
2023-07-28T10:56:12.300Z,2.50
2023-07-28T11:06:34.822Z,2.85
2023-07-28T11:16:58.369Z,3.22
2023-07-28T11:27:19.729Z,3.80
2023-07-28T11:37:43.803Z,2.30
2023-07-28T11:48:07.394Z,3.30
2023-07-28T11:58:33.331Z,2.45
2023-07-28T12:19:31.924Z,3.78
2023-07-28T12:30:02.892Z,3.60
2023-07-28T12:51:03.838Z,3.65
2023-07-28T13:01:27.637Z,6.27
2023-07-28T13:22:15.390Z,3.35
2023-07-28T13:32:37.179Z,3.85
2023-07-28T13:43:06.105Z,3.33
2023-07-28T14:03:55.672Z,3.00
2023-07-28T14:14:17.549Z,3.43
2023-07-28T14:24:40.669Z,4.38
2023-07-28T14:35:02.141Z,3.63
2023-07-28T14:45:25.286Z,4.25
2023-07-28T14:55:47.069Z,3.13
2023-07-28T15:06:10.531Z,3.88
2023-07-28T15:16:32.333Z,4.75
2023-07-28T15:26:55.401Z,3.33
2023-07-28T15:37:16.866Z,5.17
2023-07-28T15:47:39.964Z,3.72
2023-07-28T15:58:01.533Z,3.55
2023-07-28T16:08:24.725Z,4.35
2023-07-28T16:18:46.142Z,4.60
2023-07-28T16:29:09.613Z,6.25
2023-07-28T16:39:31.101Z,4.23
2023-07-28T16:49:54.114Z,6.43
2023-07-28T17:00:17.149Z,6.35
2023-07-28T17:10:40.296Z,4.45
2023-07-28T17:21:04.114Z,3.80
2023-07-28T17:31:27.419Z,6.27
2023-07-28T17:41:49.237Z,5.10
2023-07-28T17:52:12.224Z,4.45
2023-07-28T18:02:33.572Z,6.15
2023-07-28T18:12:56.483Z,4.72
2023-07-28T18:23:18.349Z,4.63
2023-07-28T18:33:41.548Z,7.97
2023-07-28T18:44:03.944Z,5.20
2023-07-28T18:54:26.872Z,5.55
2023-07-28T19:04:49.406Z,8.02
2023-07-28T19:15:12.933Z,6.20
2023-07-28T19:25:34.678Z,6.78
2023-07-28T19:35:57.541Z,6.95
2023-07-28T19:46:22.089Z,6.00
2023-07-28T19:56:47.978Z,7.03
2023-07-28T20:07:09.850Z,17.40
2023-07-28T20:17:32.691Z,14.48
2023-07-28T20:27:54.976Z,7.75
2023-07-28T20:38:18.052Z,8.68
2023-07-28T20:48:39.650Z,9.30
2023-07-28T20:59:02.907Z,11.15
2023-07-28T21:09:24.385Z,8.68
2023-07-28T21:19:47.912Z,9.23
2023-07-28T21:30:10.637Z,10.93
2023-07-28T21:40:33.741Z,13.20
2023-07-28T21:50:55.217Z,12.73
2023-07-28T22:01:17.944Z,13.85
2023-07-28T22:11:39.544Z,13.02
2023-07-28T22:22:02.661Z,13.82
2023-07-28T22:32:25.149Z,13.35
2023-07-28T22:42:48.368Z,15.00
2023-07-28T22:53:09.752Z,15.35
2023-07-28T23:03:32.777Z,13.05
2023-07-28T23:13:54.471Z,14.65
2023-07-28T23:24:17.373Z,14.70
2023-07-28T23:34:39.072Z,11.45
2023-07-28T23:45:02.165Z,12.77
2023-07-28T23:55:23.925Z,14.35
